Vinita Park, Missouri
Current Conditions -  °F | °C
As of 10:23 AM on Friday 24 Oct 2014 (Local Time) from KSTL Reporting Station
Scattered Clouds Scattered Clouds  
Wind Chill: 64°   Ceiling: Unl
Heat Index: 64°   Visibility: 8mi
Dew Point: 55°   Wind: 8mph
Humidity: 73%   Direction: 290°WNW
Pressure: 30.13"   Gusts: NA
Location:  38.702°N, 90.3628°W
Report Text: KSTL 241523Z 29007KT 8SM SCT017 SCT250 18/13 A3013 RMK AO2
Loading
Personal Weather Stations






























Interactive Weather Map
Tropical Storm Tracking
New forecast layout! Learn more

10-Day Weather Forecast

Advertisements
Track Severe Weather on mobile